Atlantic, Maine
Current Conditions -  °F | °C
As of 11:15 AM on Friday 21 Nov 2014 (Local Time) from KBHB Reporting Station
Broken Clouds Broken Clouds  
Wind Chill: 20°   Ceiling: 4500
Heat Index: 30°   Visibility: 10mi
Dew Point: 16°   Wind: 14mph
Humidity: 55%   Direction: 300°WNW
Pressure: 29.93"   Gusts: 21mph
Location:  44.1716°N, 68.4245°W
Report Text: KBHB 211615Z AUTO 30012G18KT 10SM BKN045 M01/M09 A2993 RMK AO1
Loading
Personal Weather Stations






























Interactive Weather Map New forecast layout! Learn more

10-Day Weather Forecast

Advertisements
Track Severe Weather on mobile